sensor_id;sensor_type;location;lat;lon;timestamp;P1;durP1;ratioP1;P2;durP2;ratioP2
20159;SDS011;50187;50.492;12.134;2023-06-10T00:00:20;5.77;;;5.37;;
20159;SDS011;50187;50.492;12.134;2023-06-10T00:02:47;5.23;;;4.73;;
20159;SDS011;50187;50.492;12.134;2023-06-10T00:05:14;5.50;;;5.03;;
20159;SDS011;50187;50.492;12.134;2023-06-10T00:07:42;5.10;;;4.80;;
20159;SDS011;50187;50.492;12.134;2023-06-10T00:10:09;4.87;;;4.57;;
20159;SDS011;50187;50.492;12.134;2023-06-10T00:12:37;5.87;;;5.37;;
20159;SDS011;50187;50.492;12.134;2023-06-10T00:15:05;5.03;;;4.63;;
20159;SDS011;50187;50.492;12.134;2023-06-10T00:17:33;5.67;;;5.27;;
20159;SDS011;50187;50.492;12.134;2023-06-10T00:19:59;5.27;;;4.97;;
20159;SDS011;50187;50.492;12.134;2023-06-10T00:22:26;5.23;;;4.93;;
20159;SDS011;50187;50.492;12.134;2023-06-10T00:24:55;5.13;;;4.73;;
20159;SDS011;50187;50.492;12.134;2023-06-10T00:27:24;4.93;;;4.63;;
20159;SDS011;50187;50.492;12.134;2023-06-10T00:29:59;5.53;;;5.07;;
20159;SDS011;50187;50.492;12.134;2023-06-10T00:32:25;5.00;;;4.70;;
20159;SDS011;50187;50.492;12.134;2023-06-10T00:34:52;5.77;;;5.27;;
20159;SDS011;50187;50.492;12.134;2023-06-10T00:37:19;5.40;;;5.00;;
20159;SDS011;50187;50.492;12.134;2023-06-10T00:39:45;5.50;;;5.10;;
20159;SDS011;50187;50.492;12.134;2023-06-10T00:42:12;5.00;;;4.60;;
20159;SDS011;50187;50.492;12.134;2023-06-10T00:44:39;5.90;;;5.43;;
20159;SDS011;50187;50.492;12.134;2023-06-10T00:47:05;5.37;;;5.07;;
20159;SDS011;50187;50.492;12.134;2023-06-10T00:49:33;5.33;;;4.93;;
20159;SDS011;50187;50.492;12.134;2023-06-10T00:52:01;4.80;;;4.50;;
20159;SDS011;50187;50.492;12.134;2023-06-10T00:54:30;4.80;;;4.50;;
20159;SDS011;50187;50.492;12.134;2023-06-10T00:56:57;4.70;;;4.40;;
20159;SDS011;50187;50.492;12.134;2023-06-10T00:59:24;5.53;;;5.13;;
20159;SDS011;50187;50.492;12.134;2023-06-10T01:01:51;5.37;;;5.03;;
20159;SDS011;50187;50.492;12.134;2023-06-10T01:04:18;5.50;;;5.10;;
20159;SDS011;50187;50.492;12.134;2023-06-10T01:12:19;5.27;;;4.97;;
20159;SDS011;50187;50.492;12.134;2023-06-10T01:14:55;5.30;;;5.00;;
20159;SDS011;50187;50.492;12.134;2023-06-10T01:17:22;5.27;;;4.83;;
20159;SDS011;50187;50.492;12.134;2023-06-10T01:19:53;5.73;;;5.23;;
20159;SDS011;50187;50.492;12.134;2023-06-10T01:22:25;5.27;;;4.87;;
20159;SDS011;50187;50.492;12.134;2023-06-10T01:24:58;5.13;;;4.83;;
20159;SDS011;50187;50.492;12.134;2023-06-10T01:27:29;5.47;;;5.07;;
20159;SDS011;50187;50.492;12.134;2023-06-10T01:29:59;4.93;;;4.63;;
20159;SDS011;50187;50.492;12.134;2023-06-10T01:32:33;5.67;;;5.27;;
20159;SDS011;50187;50.492;12.134;2023-06-10T01:35:04;5.60;;;5.20;;
20159;SDS011;50187;50.492;12.134;2023-06-10T01:37:36;5.43;;;5.00;;
20159;SDS011;50187;50.492;12.134;2023-06-10T01:40:06;5.40;;;5.00;;
20159;SDS011;50187;50.492;12.134;2023-06-10T01:42:34;5.07;;;4.70;;
20159;SDS011;50187;50.492;12.134;2023-06-10T01:45:01;5.10;;;4.60;;
20159;SDS011;50187;50.492;12.134;2023-06-10T01:47:27;5.27;;;4.97;;
20159;SDS011;50187;50.492;12.134;2023-06-10T01:49:54;4.80;;;4.50;;
20159;SDS011;50187;50.492;12.134;2023-06-10T01:52:21;5.53;;;5.13;;
20159;SDS011;50187;50.492;12.134;2023-06-10T01:54:48;4.90;;;4.40;;
20159;SDS011;50187;50.492;12.134;2023-06-10T01:57:14;5.13;;;4.73;;
20159;SDS011;50187;50.492;12.134;2023-06-10T01:59:42;5.47;;;5.07;;
20159;SDS011;50187;50.492;12.134;2023-06-10T02:02:10;5.20;;;4.83;;
20159;SDS011;50187;50.492;12.134;2023-06-10T02:04:37;5.50;;;5.10;;
20159;SDS011;50187;50.492;12.134;2023-06-10T02:07:04;4.93;;;4.63;;
20159;SDS011;50187;50.492;12.134;2023-06-10T02:09:32;5.03;;;4.73;;
20159;SDS011;50187;50.492;12.134;2023-06-10T02:12:04;5.17;;;4.87;;
20159;SDS011;50187;50.492;12.134;2023-06-10T02:14:33;5.53;;;5.13;;
20159;SDS011;50187;50.492;12.134;2023-06-10T02:16:59;5.57;;;5.17;;
20159;SDS011;50187;50.492;12.134;2023-06-10T02:19:27;5.00;;;4.70;;
20159;SDS011;50187;50.492;12.134;2023-06-10T02:21:54;4.77;;;4.47;;
20159;SDS011;50187;50.492;12.134;2023-06-10T02:24:21;5.17;;;4.77;;
20159;SDS011;50187;50.492;12.134;2023-06-10T02:26:48;5.10;;;4.80;;
20159;SDS011;50187;50.492;12.134;2023-06-10T02:29:15;5.20;;;4.87;;
20159;SDS011;50187;50.492;12.134;2023-06-10T02:31:41;5.03;;;4.73;;
20159;SDS011;50187;50.492;12.134;2023-06-10T02:34:08;5.23;;;4.80;;
20159;SDS011;50187;50.492;12.134;2023-06-10T02:36:35;5.10;;;4.80;;
20159;SDS011;50187;50.492;12.134;2023-06-10T02:39:02;5.47;;;5.17;;
20159;SDS011;50187;50.492;12.134;2023-06-10T02:41:31;5.50;;;5.20;;
20159;SDS011;50187;50.492;12.134;2023-06-10T02:43:59;4.47;;;4.17;;
20159;SDS011;50187;50.492;12.134;2023-06-10T02:46:26;4.90;;;4.60;;
20159;SDS011;50187;50.492;12.134;2023-06-10T02:48:55;4.80;;;4.50;;
20159;SDS011;50187;50.492;12.134;2023-06-10T02:51:23;5.60;;;5.20;;
20159;SDS011;50187;50.492;12.134;2023-06-10T02:53:56;5.00;;;4.60;;
20159;SDS011;50187;50.492;12.134;2023-06-10T02:56:23;5.20;;;4.83;;
20159;SDS011;50187;50.492;12.134;2023-06-10T02:58:50;4.90;;;4.60;;
20159;SDS011;50187;50.492;12.134;2023-06-10T03:01:19;5.13;;;4.83;;
20159;SDS011;50187;50.492;12.134;2023-06-10T03:04:07;5.13;;;4.83;;
20159;SDS011;50187;50.492;12.134;2023-06-10T03:06:35;5.23;;;4.90;;
20159;SDS011;50187;50.492;12.134;2023-06-10T03:09:15;5.17;;;4.77;;
20159;SDS011;50187;50.492;12.134;2023-06-10T03:11:44;5.13;;;4.83;;
20159;SDS011;50187;50.492;12.134;2023-06-10T03:14:11;4.93;;;4.63;;
20159;SDS011;50187;50.492;12.134;2023-06-10T03:16:38;4.87;;;4.57;;
20159;SDS011;50187;50.492;12.134;2023-06-10T03:19:09;4.80;;;4.50;;
20159;SDS011;50187;50.492;12.134;2023-06-10T03:21:38;4.53;;;4.23;;
20159;SDS011;50187;50.492;12.134;2023-06-10T03:24:06;5.10;;;4.80;;
20159;SDS011;50187;50.492;12.134;2023-06-10T03:26:34;5.53;;;5.13;;
20159;SDS011;50187;50.492;12.134;2023-06-10T03:29:01;4.87;;;4.57;;
20159;SDS011;50187;50.492;12.134;2023-06-10T03:31:28;4.73;;;4.43;;
20159;SDS011;50187;50.492;12.134;2023-06-10T03:33:56;4.77;;;4.47;;
20159;SDS011;50187;50.492;12.134;2023-06-10T03:36:25;5.03;;;4.73;;
20159;SDS011;50187;50.492;12.134;2023-06-10T03:38:56;4.60;;;4.30;;
20159;SDS011;50187;50.492;12.134;2023-06-10T03:41:24;4.63;;;4.23;;
20159;SDS011;50187;50.492;12.134;2023-06-10T03:43:52;5.10;;;4.70;;
20159;SDS011;50187;50.492;12.134;2023-06-10T03:46:19;4.63;;;4.33;;
20159;SDS011;50187;50.492;12.134;2023-06-10T03:48:46;4.63;;;4.33;;
20159;SDS011;50187;50.492;12.134;2023-06-10T03:51:12;5.10;;;4.70;;
20159;SDS011;50187;50.492;12.134;2023-06-10T03:53:39;5.07;;;4.67;;
20159;SDS011;50187;50.492;12.134;2023-06-10T03:56:06;5.37;;;4.97;;
20159;SDS011;50187;50.492;12.134;2023-06-10T03:58:32;4.93;;;4.63;;
20159;SDS011;50187;50.492;12.134;2023-06-10T04:00:59;4.87;;;4.57;;
20159;SDS011;50187;50.492;12.134;2023-06-10T04:03:32;4.80;;;4.50;;
20159;SDS011;50187;50.492;12.134;2023-06-10T04:05:59;4.90;;;4.50;;
20159;SDS011;50187;50.492;12.134;2023-06-10T04:08:26;4.93;;;4.63;;
20159;SDS011;50187;50.492;12.134;2023-06-10T04:10:54;5.17;;;4.77;;
20159;SDS011;50187;50.492;12.134;2023-06-10T04:13:21;5.17;;;4.83;;
20159;SDS011;50187;50.492;12.134;2023-06-10T04:15:52;5.07;;;4.67;;
20159;SDS011;50187;50.492;12.134;2023-06-10T04:18:21;5.30;;;4.83;;
20159;SDS011;50187;50.492;12.134;2023-06-10T04:20:54;4.67;;;4.37;;
20159;SDS011;50187;50.492;12.134;2023-06-10T04:23:20;4.90;;;4.57;;
20159;SDS011;50187;50.492;12.134;2023-06-10T04:25:47;5.07;;;4.67;;
20159;SDS011;50187;50.492;12.134;2023-06-10T04:28:14;4.67;;;4.40;;
20159;SDS011;50187;50.492;12.134;2023-06-10T04:30:42;5.10;;;4.70;;
20159;SDS011;50187;50.492;12.134;2023-06-10T04:33:10;4.80;;;4.50;;
20159;SDS011;50187;50.492;12.134;2023-06-10T04:35:38;4.90;;;4.50;;
20159;SDS011;50187;50.492;12.134;2023-06-10T04:38:06;5.10;;;4.80;;
20159;SDS011;50187;50.492;12.134;2023-06-10T04:40:33;5.00;;;4.60;;
20159;SDS011;50187;50.492;12.134;2023-06-10T04:43:00;4.73;;;4.43;;
20159;SDS011;50187;50.492;12.134;2023-06-10T04:45:27;4.77;;;4.47;;
20159;SDS011;50187;50.492;12.134;2023-06-10T04:47:55;4.80;;;4.50;;
20159;SDS011;50187;50.492;12.134;2023-06-10T04:50:22;4.87;;;4.53;;
20159;SDS011;50187;50.492;12.134;2023-06-10T04:52:48;5.17;;;4.77;;
20159;SDS011;50187;50.492;12.134;2023-06-10T04:55:15;4.83;;;4.50;;
20159;SDS011;50187;50.492;12.134;2023-06-10T04:57:42;5.07;;;4.70;;
20159;SDS011;50187;50.492;12.134;2023-06-10T05:00:09;5.13;;;4.73;;
20159;SDS011;50187;50.492;12.134;2023-06-10T05:02:36;5.53;;;5.17;;
20159;SDS011;50187;50.492;12.134;2023-06-10T05:05:02;4.80;;;4.50;;
20159;SDS011;50187;50.492;12.134;2023-06-10T05:07:29;4.50;;;4.20;;
20159;SDS011;50187;50.492;12.134;2023-06-10T05:09:56;5.17;;;4.77;;
20159;SDS011;50187;50.492;12.134;2023-06-10T05:12:22;4.73;;;4.43;;
20159;SDS011;50187;50.492;12.134;2023-06-10T05:14:49;5.13;;;4.73;;
20159;SDS011;50187;50.492;12.134;2023-06-10T05:17:15;4.50;;;4.20;;
20159;SDS011;50187;50.492;12.134;2023-06-10T05:19:42;4.70;;;4.40;;
20159;SDS011;50187;50.492;12.134;2023-06-10T05:22:09;4.90;;;4.60;;
20159;SDS011;50187;50.492;12.134;2023-06-10T05:24:36;4.70;;;4.40;;
20159;SDS011;50187;50.492;12.134;2023-06-10T05:27:03;5.33;;;5.03;;
20159;SDS011;50187;50.492;12.134;2023-06-10T05:29:29;5.00;;;4.60;;
20159;SDS011;50187;50.492;12.134;2023-06-10T05:31:56;4.47;;;4.17;;
20159;SDS011;50187;50.492;12.134;2023-06-10T05:34:24;4.83;;;4.43;;
20159;SDS011;50187;50.492;12.134;2023-06-10T05:36:50;5.00;;;4.70;;
20159;SDS011;50187;50.492;12.134;2023-06-10T05:39:17;5.07;;;4.60;;
20159;SDS011;50187;50.492;12.134;2023-06-10T05:41:43;4.40;;;4.13;;
20159;SDS011;50187;50.492;12.134;2023-06-10T05:44:10;5.00;;;4.70;;
20159;SDS011;50187;50.492;12.134;2023-06-10T05:46:39;4.97;;;4.67;;
20159;SDS011;50187;50.492;12.134;2023-06-10T05:49:06;4.60;;;4.30;;
20159;SDS011;50187;50.492;12.134;2023-06-10T05:51:32;4.63;;;4.33;;
20159;SDS011;50187;50.492;12.134;2023-06-10T05:53:59;4.73;;;4.43;;
20159;SDS011;50187;50.492;12.134;2023-06-10T05:56:26;4.47;;;4.17;;
20159;SDS011;50187;50.492;12.134;2023-06-10T05:58:52;4.57;;;4.23;;
20159;SDS011;50187;50.492;12.134;2023-06-10T06:01:19;4.63;;;4.33;;
20159;SDS011;50187;50.492;12.134;2023-06-10T06:03:46;4.93;;;4.63;;
20159;SDS011;50187;50.492;12.134;2023-06-10T06:06:12;4.50;;;4.17;;
20159;SDS011;50187;50.492;12.134;2023-06-10T06:08:39;4.90;;;4.60;;
20159;SDS011;50187;50.492;12.134;2023-06-10T06:11:05;4.50;;;4.20;;
20159;SDS011;50187;50.492;12.134;2023-06-10T06:13:32;4.20;;;3.90;;
20159;SDS011;50187;50.492;12.134;2023-06-10T06:15:59;4.23;;;4.03;;
20159;SDS011;50187;50.492;12.134;2023-06-10T06:18:25;4.27;;;4.07;;
20159;SDS011;50187;50.492;12.134;2023-06-10T06:20:52;4.83;;;4.53;;
20159;SDS011;50187;50.492;12.134;2023-06-10T06:23:19;4.47;;;4.17;;
20159;SDS011;50187;50.492;12.134;2023-06-10T06:25:45;4.33;;;4.03;;
20159;SDS011;50187;50.492;12.134;2023-06-10T06:28:12;5.03;;;4.63;;
20159;SDS011;50187;50.492;12.134;2023-06-10T06:30:38;4.60;;;4.20;;
20159;SDS011;50187;50.492;12.134;2023-06-10T06:33:05;4.53;;;4.23;;
20159;SDS011;50187;50.492;12.134;2023-06-10T06:35:32;4.67;;;4.37;;
20159;SDS011;50187;50.492;12.134;2023-06-10T06:38:00;4.70;;;4.40;;
20159;SDS011;50187;50.492;12.134;2023-06-10T06:40:28;4.70;;;4.40;;
20159;SDS011;50187;50.492;12.134;2023-06-10T06:42:55;4.07;;;3.77;;
20159;SDS011;50187;50.492;12.134;2023-06-10T06:45:32;4.50;;;4.20;;
20159;SDS011;50187;50.492;12.134;2023-06-10T06:48:00;4.10;;;3.80;;
20159;SDS011;50187;50.492;12.134;2023-06-10T06:50:27;4.60;;;4.30;;
20159;SDS011;50187;50.492;12.134;2023-06-10T06:52:53;3.93;;;3.73;;
20159;SDS011;50187;50.492;12.134;2023-06-10T06:55:20;3.90;;;3.70;;
20159;SDS011;50187;50.492;12.134;2023-06-10T06:57:46;4.40;;;4.10;;
20159;SDS011;50187;50.492;12.134;2023-06-10T07:00:13;4.53;;;4.13;;
20159;SDS011;50187;50.492;12.134;2023-06-10T07:02:40;4.27;;;3.97;;
20159;SDS011;50187;50.492;12.134;2023-06-10T07:05:07;4.30;;;4.00;;
20159;SDS011;50187;50.492;12.134;2023-06-10T07:07:34;4.43;;;4.13;;
20159;SDS011;50187;50.492;12.134;2023-06-10T07:10:01;4.57;;;4.27;;
20159;SDS011;50187;50.492;12.134;2023-06-10T07:12:28;4.40;;;4.13;;
20159;SDS011;50187;50.492;12.134;2023-06-10T07:14:56;4.30;;;4.00;;
20159;SDS011;50187;50.492;12.134;2023-06-10T07:17:23;4.40;;;4.10;;
20159;SDS011;50187;50.492;12.134;2023-06-10T07:19:49;4.53;;;4.23;;
20159;SDS011;50187;50.492;12.134;2023-06-10T07:22:17;4.80;;;4.50;;
20159;SDS011;50187;50.492;12.134;2023-06-10T07:24:44;4.53;;;4.23;;
20159;SDS011;50187;50.492;12.134;2023-06-10T07:27:10;4.57;;;4.30;;
20159;SDS011;50187;50.492;12.134;2023-06-10T07:29:37;4.80;;;4.50;;
20159;SDS011;50187;50.492;12.134;2023-06-10T07:32:04;4.43;;;4.13;;
20159;SDS011;50187;50.492;12.134;2023-06-10T07:34:31;4.00;;;3.80;;
20159;SDS011;50187;50.492;12.134;2023-06-10T07:36:57;4.77;;;4.47;;
20159;SDS011;50187;50.492;12.134;2023-06-10T07:39:24;4.57;;;4.27;;
20159;SDS011;50187;50.492;12.134;2023-06-10T07:41:50;4.20;;;3.90;;
20159;SDS011;50187;50.492;12.134;2023-06-10T07:44:20;4.20;;;4.00;;
20159;SDS011;50187;50.492;12.134;2023-06-10T07:46:46;3.90;;;3.60;;
20159;SDS011;50187;50.492;12.134;2023-06-10T07:49:13;4.83;;;4.53;;
20159;SDS011;50187;50.492;12.134;2023-06-10T07:51:40;4.57;;;4.17;;
20159;SDS011;50187;50.492;12.134;2023-06-10T07:54:07;4.20;;;3.90;;
20159;SDS011;50187;50.492;12.134;2023-06-10T07:56:33;4.57;;;4.27;;
20159;SDS011;50187;50.492;12.134;2023-06-10T07:59:00;4.53;;;4.23;;
20159;SDS011;50187;50.492;12.134;2023-06-10T08:01:26;4.73;;;4.43;;
20159;SDS011;50187;50.492;12.134;2023-06-10T08:03:53;4.47;;;4.10;;
20159;SDS011;50187;50.492;12.134;2023-06-10T08:06:20;4.07;;;3.77;;
20159;SDS011;50187;50.492;12.134;2023-06-10T08:08:46;4.50;;;4.20;;
20159;SDS011;50187;50.492;12.134;2023-06-10T08:11:13;5.00;;;4.70;;
20159;SDS011;50187;50.492;12.134;2023-06-10T08:13:40;3.97;;;3.77;;
20159;SDS011;50187;50.492;12.134;2023-06-10T08:16:06;4.83;;;4.43;;
20159;SDS011;50187;50.492;12.134;2023-06-10T08:18:34;4.10;;;3.80;;
20159;SDS011;50187;50.492;12.134;2023-06-10T08:21:00;4.30;;;4.00;;
20159;SDS011;50187;50.492;12.134;2023-06-10T08:23:27;4.70;;;4.40;;
20159;SDS011;50187;50.492;12.134;2023-06-10T08:25:53;4.43;;;4.13;;
20159;SDS011;50187;50.492;12.134;2023-06-10T08:28:20;4.77;;;4.47;;
20159;SDS011;50187;50.492;12.134;2023-06-10T08:30:46;4.53;;;4.23;;
20159;SDS011;50187;50.492;12.134;2023-06-10T08:33:13;4.70;;;4.40;;
20159;SDS011;50187;50.492;12.134;2023-06-10T08:35:40;3.90;;;3.70;;
20159;SDS011;50187;50.492;12.134;2023-06-10T08:38:06;4.50;;;4.20;;
20159;SDS011;50187;50.492;12.134;2023-06-10T08:40:34;4.40;;;4.10;;
20159;SDS011;50187;50.492;12.134;2023-06-10T08:43:48;4.73;;;4.37;;
20159;SDS011;50187;50.492;12.134;2023-06-10T08:46:10;4.20;;;3.90;;
20159;SDS011;50187;50.492;12.134;2023-06-10T08:48:41;3.87;;;3.60;;
20159;SDS011;50187;50.492;12.134;2023-06-10T08:51:10;4.20;;;3.90;;
20159;SDS011;50187;50.492;12.134;2023-06-10T08:53:38;4.40;;;4.10;;
20159;SDS011;50187;50.492;12.134;2023-06-10T08:56:16;4.33;;;4.07;;
20159;SDS011;50187;50.492;12.134;2023-06-10T08:58:44;4.40;;;4.10;;
20159;SDS011;50187;50.492;12.134;2023-06-10T09:01:11;3.93;;;3.73;;
20159;SDS011;50187;50.492;12.134;2023-06-10T09:03:39;4.27;;;4.03;;
20159;SDS011;50187;50.492;12.134;2023-06-10T09:06:07;4.47;;;4.23;;
20159;SDS011;50187;50.492;12.134;2023-06-10T09:08:34;4.50;;;4.20;;
20159;SDS011;50187;50.492;12.134;2023-06-10T09:11:01;4.60;;;4.30;;
20159;SDS011;50187;50.492;12.134;2023-06-10T09:13:28;4.50;;;4.20;;
20159;SDS011;50187;50.492;12.134;2023-06-10T09:15:55;4.40;;;4.10;;
20159;SDS011;50187;50.492;12.134;2023-06-10T09:18:27;4.90;;;4.60;;
20159;SDS011;50187;50.492;12.134;2023-06-10T09:20:54;4.20;;;3.90;;
20159;SDS011;50187;50.492;12.134;2023-06-10T09:23:21;4.60;;;4.30;;
20159;SDS011;50187;50.492;12.134;2023-06-10T09:25:55;4.00;;;3.80;;
20159;SDS011;50187;50.492;12.134;2023-06-10T09:28:24;4.50;;;4.20;;
20159;SDS011;50187;50.492;12.134;2023-06-10T09:31:01;4.40;;;4.10;;
20159;SDS011;50187;50.492;12.134;2023-06-10T09:33:32;4.00;;;3.80;;
20159;SDS011;50187;50.492;12.134;2023-06-10T09:36:00;4.07;;;3.80;;
20159;SDS011;50187;50.492;12.134;2023-06-10T09:38:29;4.97;;;4.67;;
20159;SDS011;50187;50.492;12.134;2023-06-10T09:40:57;4.33;;;4.03;;
20159;SDS011;50187;50.492;12.134;2023-06-10T09:43:43;4.40;;;4.10;;
20159;SDS011;50187;50.492;12.134;2023-06-10T09:46:20;4.30;;;4.00;;
20159;SDS011;50187;50.492;12.134;2023-06-10T09:48:47;4.87;;;4.47;;
20159;SDS011;50187;50.492;12.134;2023-06-10T09:51:16;4.17;;;3.90;;
20159;SDS011;50187;50.492;12.134;2023-06-10T09:53:49;4.67;;;4.37;;
20159;SDS011;50187;50.492;12.134;2023-06-10T09:56:18;4.80;;;4.50;;
20159;SDS011;50187;50.492;12.134;2023-06-10T09:58:44;4.97;;;4.57;;
20159;SDS011;50187;50.492;12.134;2023-06-10T10:01:13;5.17;;;4.77;;
20159;SDS011;50187;50.492;12.134;2023-06-10T10:03:44;5.53;;;5.13;;
20159;SDS011;50187;50.492;12.134;2023-06-10T10:06:12;5.50;;;5.07;;
20159;SDS011;50187;50.492;12.134;2023-06-10T10:08:40;6.10;;;5.70;;
20159;SDS011;50187;50.492;12.134;2023-06-10T10:11:07;6.10;;;5.60;;
20159;SDS011;50187;50.492;12.134;2023-06-10T10:13:34;5.73;;;5.33;;
20159;SDS011;50187;50.492;12.134;2023-06-10T10:16:03;6.07;;;5.57;;
20159;SDS011;50187;50.492;12.134;2023-06-10T10:18:35;6.03;;;5.57;;
20159;SDS011;50187;50.492;12.134;2023-06-10T10:21:12;5.30;;;5.00;;
20159;SDS011;50187;50.492;12.134;2023-06-10T10:26:20;5.30;;;4.90;;
20159;SDS011;50187;50.492;12.134;2023-06-10T10:28:48;5.87;;;5.47;;
20159;SDS011;50187;50.492;12.134;2023-06-10T10:31:22;5.30;;;4.90;;
20159;SDS011;50187;50.492;12.134;2023-06-10T10:33:54;5.73;;;5.33;;
20159;SDS011;50187;50.492;12.134;2023-06-10T10:36:24;5.80;;;5.40;;
20159;SDS011;50187;50.492;12.134;2023-06-10T10:38:52;5.90;;;5.43;;
20159;SDS011;50187;50.492;12.134;2023-06-10T10:41:18;5.80;;;5.40;;
20159;SDS011;50187;50.492;12.134;2023-06-10T10:43:47;5.97;;;5.57;;
20159;SDS011;50187;50.492;12.134;2023-06-10T10:46:16;5.83;;;5.43;;
20159;SDS011;50187;50.492;12.134;2023-06-10T10:48:43;5.63;;;5.23;;
20159;SDS011;50187;50.492;12.134;2023-06-10T10:51:11;5.87;;;5.37;;
20159;SDS011;50187;50.492;12.134;2023-06-10T10:53:38;5.40;;;5.00;;
20159;SDS011;50187;50.492;12.134;2023-06-10T10:56:13;5.80;;;5.30;;
20159;SDS011;50187;50.492;12.134;2023-06-10T10:58:42;5.77;;;5.27;;
20159;SDS011;50187;50.492;12.134;2023-06-10T11:01:12;5.63;;;5.23;;
20159;SDS011;50187;50.492;12.134;2023-06-10T11:03:44;6.17;;;5.57;;
20159;SDS011;50187;50.492;12.134;2023-06-10T11:06:14;5.13;;;4.73;;
20159;SDS011;50187;50.492;12.134;2023-06-10T11:11:26;5.50;;;5.00;;
20159;SDS011;50187;50.492;12.134;2023-06-10T11:16:32;5.23;;;4.83;;
20159;SDS011;50187;50.492;12.134;2023-06-10T11:19:05;5.70;;;5.27;;
20159;SDS011;50187;50.492;12.134;2023-06-10T11:21:32;5.40;;;5.10;;
20159;SDS011;50187;50.492;12.134;2023-06-10T11:24:23;5.30;;;4.90;;
20159;SDS011;50187;50.492;12.134;2023-06-10T11:26:50;6.10;;;5.70;;
20159;SDS011;50187;50.492;12.134;2023-06-10T11:29:16;5.50;;;5.10;;
20159;SDS011;50187;50.492;12.134;2023-06-10T11:31:44;5.77;;;5.37;;
20159;SDS011;50187;50.492;12.134;2023-06-10T11:34:12;5.73;;;5.33;;
20159;SDS011;50187;50.492;12.134;2023-06-10T11:36:40;5.63;;;5.10;;
20159;SDS011;50187;50.492;12.134;2023-06-10T11:39:09;5.60;;;5.20;;
20159;SDS011;50187;50.492;12.134;2023-06-10T11:41:37;6.33;;;5.80;;
20159;SDS011;50187;50.492;12.134;2023-06-10T11:44:11;5.87;;;5.30;;
20159;SDS011;50187;50.492;12.134;2023-06-10T11:46:44;5.47;;;4.97;;
20159;SDS011;50187;50.492;12.134;2023-06-10T11:49:12;5.70;;;5.40;;
20159;SDS011;50187;50.492;12.134;2023-06-10T11:51:39;5.50;;;5.17;;
20159;SDS011;50187;50.492;12.134;2023-06-10T11:54:10;5.50;;;5.10;;
20159;SDS011;50187;50.492;12.134;2023-06-10T11:56:37;5.33;;;4.93;;
20159;SDS011;50187;50.492;12.134;2023-06-10T11:59:04;5.53;;;4.70;;
20159;SDS011;50187;50.492;12.134;2023-06-10T12:01:36;5.60;;;5.20;;
20159;SDS011;50187;50.492;12.134;2023-06-10T12:04:15;5.23;;;4.77;;
20159;SDS011;50187;50.492;12.134;2023-06-10T12:06:43;5.20;;;4.87;;
20159;SDS011;50187;50.492;12.134;2023-06-10T12:09:20;5.33;;;5.03;;
20159;SDS011;50187;50.492;12.134;2023-06-10T12:12:01;5.33;;;4.90;;
20159;SDS011;50187;50.492;12.134;2023-06-10T12:20:00;5.23;;;4.77;;
20159;SDS011;50187;50.492;12.134;2023-06-10T12:22:35;5.63;;;5.23;;
20159;SDS011;50187;50.492;12.134;2023-06-10T12:25:06;5.53;;;5.13;;
20159;SDS011;50187;50.492;12.134;2023-06-10T12:27:34;5.53;;;5.13;;
20159;SDS011;50187;50.492;12.134;2023-06-10T12:30:03;5.90;;;5.50;;
20159;SDS011;50187;50.492;12.134;2023-06-10T12:35:07;4.93;;;4.63;;
20159;SDS011;50187;50.492;12.134;2023-06-10T12:37:34;4.93;;;4.63;;
20159;SDS011;50187;50.492;12.134;2023-06-10T12:40:05;4.93;;;4.53;;
20159;SDS011;50187;50.492;12.134;2023-06-10T12:42:37;5.33;;;5.03;;
20159;SDS011;50187;50.492;12.134;2023-06-10T12:45:04;5.43;;;5.03;;
20159;SDS011;50187;50.492;12.134;2023-06-10T12:47:35;6.17;;;5.33;;
20159;SDS011;50187;50.492;12.134;2023-06-10T12:50:05;5.10;;;4.70;;
20159;SDS011;50187;50.492;12.134;2023-06-10T12:52:33;5.30;;;5.00;;
20159;SDS011;50187;50.492;12.134;2023-06-10T12:55:00;5.67;;;5.27;;
20159;SDS011;50187;50.492;12.134;2023-06-10T12:57:27;5.17;;;4.87;;
20159;SDS011;50187;50.492;12.134;2023-06-10T12:59:54;5.73;;;5.33;;
20159;SDS011;50187;50.492;12.134;2023-06-10T13:02:23;5.40;;;5.00;;
20159;SDS011;50187;50.492;12.134;2023-06-10T13:04:50;5.67;;;5.37;;
20159;SDS011;50187;50.492;12.134;2023-06-10T13:07:17;5.03;;;4.73;;
20159;SDS011;50187;50.492;12.134;2023-06-10T13:09:44;5.50;;;5.10;;
20159;SDS011;50187;50.492;12.134;2023-06-10T13:12:15;6.13;;;5.63;;
20159;SDS011;50187;50.492;12.134;2023-06-10T13:14:52;5.70;;;5.20;;
20159;SDS011;50187;50.492;12.134;2023-06-10T13:17:20;5.40;;;5.00;;
20159;SDS011;50187;50.492;12.134;2023-06-10T13:19:47;5.30;;;5.00;;
20159;SDS011;50187;50.492;12.134;2023-06-10T13:22:15;5.60;;;5.20;;
20159;SDS011;50187;50.492;12.134;2023-06-10T13:24:41;6.00;;;5.40;;
20159;SDS011;50187;50.492;12.134;2023-06-10T13:27:10;6.10;;;5.47;;
20159;SDS011;50187;50.492;12.134;2023-06-10T13:29:36;5.40;;;5.00;;
20159;SDS011;50187;50.492;12.134;2023-06-10T13:32:03;5.43;;;5.03;;
20159;SDS011;50187;50.492;12.134;2023-06-10T13:34:30;5.07;;;4.77;;
20159;SDS011;50187;50.492;12.134;2023-06-10T13:36:56;5.07;;;4.77;;
20159;SDS011;50187;50.492;12.134;2023-06-10T13:39:23;5.50;;;5.00;;
20159;SDS011;50187;50.492;12.134;2023-06-10T13:41:50;5.40;;;5.00;;
20159;SDS011;50187;50.492;12.134;2023-06-10T13:44:18;5.20;;;4.80;;
20159;SDS011;50187;50.492;12.134;2023-06-10T13:46:44;5.73;;;5.33;;
20159;SDS011;50187;50.492;12.134;2023-06-10T13:49:15;5.70;;;5.30;;
20159;SDS011;50187;50.492;12.134;2023-06-10T13:51:41;5.47;;;5.07;;
20159;SDS011;50187;50.492;12.134;2023-06-10T13:54:08;5.73;;;5.33;;
20159;SDS011;50187;50.492;12.134;2023-06-10T13:56:35;5.23;;;4.93;;
20159;SDS011;50187;50.492;12.134;2023-06-10T13:59:04;5.97;;;5.57;;
20159;SDS011;50187;50.492;12.134;2023-06-10T14:01:31;5.23;;;4.73;;
20159;SDS011;50187;50.492;12.134;2023-06-10T14:03:57;5.60;;;5.20;;
20159;SDS011;50187;50.492;12.134;2023-06-10T14:06:24;5.77;;;5.37;;
20159;SDS011;50187;50.492;12.134;2023-06-10T14:08:50;4.83;;;4.43;;
20159;SDS011;50187;50.492;12.134;2023-06-10T14:11:17;4.87;;;4.57;;
20159;SDS011;50187;50.492;12.134;2023-06-10T14:13:44;5.67;;;5.27;;
20159;SDS011;50187;50.492;12.134;2023-06-10T14:16:10;5.50;;;5.10;;
20159;SDS011;50187;50.492;12.134;2023-06-10T14:18:37;5.53;;;5.03;;
20159;SDS011;50187;50.492;12.134;2023-06-10T14:21:03;5.20;;;4.87;;
20159;SDS011;50187;50.492;12.134;2023-06-10T14:23:30;5.63;;;5.13;;
20159;SDS011;50187;50.492;12.134;2023-06-10T14:25:57;5.47;;;5.13;;
20159;SDS011;50187;50.492;12.134;2023-06-10T14:28:23;6.10;;;5.70;;
20159;SDS011;50187;50.492;12.134;2023-06-10T14:30:50;4.80;;;4.50;;
20159;SDS011;50187;50.492;12.134;2023-06-10T14:33:16;4.60;;;4.30;;
20159;SDS011;50187;50.492;12.134;2023-06-10T14:35:43;5.83;;;5.43;;
20159;SDS011;50187;50.492;12.134;2023-06-10T14:38:10;4.93;;;4.53;;
20159;SDS011;50187;50.492;12.134;2023-06-10T14:40:37;4.90;;;4.43;;
20159;SDS011;50187;50.492;12.134;2023-06-10T14:43:03;5.17;;;4.87;;
20159;SDS011;50187;50.492;12.134;2023-06-10T14:45:36;5.33;;;4.93;;
20159;SDS011;50187;50.492;12.134;2023-06-10T14:48:04;4.73;;;4.40;;
20159;SDS011;50187;50.492;12.134;2023-06-10T14:50:31;5.17;;;4.87;;
20159;SDS011;50187;50.492;12.134;2023-06-10T14:52:58;5.00;;;4.70;;
20159;SDS011;50187;50.492;12.134;2023-06-10T14:55:26;5.10;;;4.70;;
20159;SDS011;50187;50.492;12.134;2023-06-10T14:57:52;5.10;;;4.80;;
20159;SDS011;50187;50.492;12.134;2023-06-10T15:00:19;4.50;;;4.20;;